Aviation Digital Data Service (ADDS)

Output produced by METARs form (0305 UTC 23 September 2018)
found at http://aviationweather.gov/metar/data/
 
KJAN 230254Z 00000KT 10SM FEW090 23/22 A3000 RMK AO2 SLP153 60002 T02280222 51010
KJAN 222340Z 2300/2324 08003KT P6SM VCTS SCT050CB 
     FM230300 14003KT P6SM BKN150 
     FM231300 15006KT P6SM OVC015 
     FM231730 14008KT P6SM OVC050